This is the latest recevied weather packets stored in our database for station/object K5NWZ. If no packets are shown the sender has not sent any weather packets the latest 10 day(s).
| Time | Temp. | Humidity | Pressure | Rain* | Wind** | Luminosity | Snow |
|---|---|---|---|---|---|---|---|
| 1777943382 | 10° C | 87% | 1019.1 hPa | 0 mm | - | 4 W/m² | - |
| 1777943077 | 10° C | 86% | 1018.9 hPa | 0 mm | - | 4 W/m² | - |
| 1777942774 | 10° C | 86% | 1018.9 hPa | 1.27 mm | - | 4 W/m² | - |
| 1777942471 | 10° C | 85% | 1018.9 hPa | 3.05 mm | - | 6 W/m² | - |
| 1777942168 | 10.56° C | 84% | 1018.7 hPa | 3.05 mm | - | 8 W/m² | - |
| 1777941865 | 11.11° C | 80% | 1018.8 hPa | 1.27 mm | - | 10 W/m² | - |
| 1777941562 | 11.11° C | 78% | 1018.8 hPa | 1.78 mm | - | 11 W/m² | - |
| 1777941259 | 11.67° C | 76% | 1018.9 hPa | 1.78 mm | - | 13 W/m² | - |
| 1777940955 | 12.22° C | 70% | 1018.8 hPa | 0 mm | - | 16 W/m² | - |
| 1777940651 | 12.22° C | 75% | 1018.8 hPa | 0 mm | - | 17 W/m² | - |
| 1777940350 | 12.22° C | 76% | 1018.9 hPa | 0 mm | - | 19 W/m² | - |
| 1777940047 | 12.22° C | 73% | 1018.5 hPa | 0 mm | - | 21 W/m² | - |
| 1777939744 | 11.67° C | 80% | 1018.9 hPa | 0 mm | - | 22 W/m² | - |
| 1777939442 | 11.67° C | 80% | 1018.7 hPa | 0 mm | - | 22 W/m² | - |
| 1777939138 | 11.67° C | 76% | 1018.7 hPa | 0 mm | - | 18 W/m² | - |
| 1777938835 | 11.67° C | 79% | 1018.4 hPa | 0 mm | - | 20 W/m² | - |
| 1777938531 | 11.67° C | 76% | 1018.4 hPa | 1.78 mm | - | 30 W/m² | - |
| 1777938229 | 12.22° C | 74% | 1018.3 hPa | 3.05 mm | - | 36 W/m² | - |
| 1777937926 | 11.67° C | 67% | 1018.7 hPa | 1.27 mm | - | 28 W/m² | - |
| 1777937621 | 12.22° C | 65% | 1018.4 hPa | 1.78 mm | - | 22 W/m² | - |
| 1777937318 | 13.33° C | 60% | 1018.4 hPa | 1.27 mm | - | 17 W/m² | - |
| 1777937016 | 14.44° C | 56% | 1018.8 hPa | 1.27 mm | - | 16 W/m² | - |
| 1777936712 | 16.11° C | 46% | 1018.3 hPa | 0 mm | - | 13 W/m² | - |
| 1777936409 | 16.67° C | 43% | 1018.1 hPa | 0 mm | - | 13 W/m² | - |
| 1777936105 | 16.67° C | 40% | 1017.5 hPa | 0 mm | - | 17 W/m² | - |
* Rain latest hour (hover to see other rain measurements)
** Current wind speed in m/s (hover to see current wind gust speed)